Time,TemperatureF,DewpointF,PressureIn,WindDirection,WindDirectionDegrees,WindSpeedMPH,WindSpeedGustMPH,Humidity,HourlyPrecipIn,Conditions,Clouds,dailyrainin,SoftwareType,DateUTC
2013-02-16 00:01:00,28.0,25.0,30.31,SSW,213,2.0,4.0,89,0.00,,,0.00,,2013-02-16 08:01:00,
2013-02-16 00:11:00,28.0,25.0,30.31,SSW,213,2.0,4.0,89,0.00,,,0.00,,2013-02-16 08:11:00,
2013-02-16 00:21:00,28.0,25.0,30.31,SSW,195,3.0,5.0,89,0.00,,,0.00,,2013-02-16 08:21:00,
2013-02-16 00:31:00,28.0,25.0,30.31,SSW,194,1.0,4.0,88,0.00,,,0.00,,2013-02-16 08:31:00,
2013-02-16 00:41:00,28.0,25.0,30.31,SSW,194,1.0,4.0,88,0.00,,,0.00,,2013-02-16 08:41:00,
2013-02-16 00:52:00,28.0,25.0,30.31,SSW,194,0.0,3.0,89,0.00,,,0.00,,2013-02-16 08:52:00,
2013-02-16 01:01:00,28.0,25.0,30.31,SSW,194,0.0,3.0,89,0.00,,,0.00,,2013-02-16 09:01:00,
2013-02-16 01:11:00,28.0,25.0,30.31,SSW,194,0.0,3.0,89,0.00,,,0.00,,2013-02-16 09:11:00,
2013-02-16 01:21:00,27.0,24.0,30.31,SSW,194,1.0,3.0,90,0.00,,,0.00,,2013-02-16 09:21:00,
2013-02-16 01:31:00,27.0,25.0,30.31,SSW,194,1.0,3.0,91,0.00,,,0.00,,2013-02-16 09:31:00,
2013-02-16 01:42:00,27.0,25.0,30.31,SSW,194,1.0,3.0,91,0.00,,,0.00,,2013-02-16 09:42:00,
2013-02-16 01:52:00,26.0,24.0,30.30,SSW,194,1.0,3.0,91,0.00,,,0.00,,2013-02-16 09:52:00,
2013-02-16 02:01:00,27.0,24.0,30.30,SSW,194,2.0,4.0,90,0.00,,,0.00,,2013-02-16 10:01:00,
2013-02-16 02:11:00,27.0,24.0,30.30,SSW,194,2.0,4.0,90,0.00,,,0.00,,2013-02-16 10:11:00,
2013-02-16 02:21:00,28.0,25.0,30.29,SSW,194,3.0,5.0,90,0.00,,,0.00,,2013-02-16 10:21:00,
2013-02-16 02:31:00,28.0,25.0,30.29,SSW,196,2.0,6.0,89,0.00,,,0.00,,2013-02-16 10:31:00,
2013-02-16 02:41:00,28.0,25.0,30.29,SSW,196,2.0,6.0,89,0.00,,,0.00,,2013-02-16 10:41:00,
2013-02-16 02:52:00,28.0,25.0,30.29,SSW,194,2.0,6.0,90,0.00,,,0.00,,2013-02-16 10:52:00,
2013-02-16 03:01:00,28.0,25.0,30.28,SSW,193,2.0,6.0,90,0.00,,,0.00,,2013-02-16 11:01:00,
2013-02-16 03:11:00,28.0,25.0,30.28,SSW,193,2.0,6.0,90,0.00,,,0.00,,2013-02-16 11:11:00,
2013-02-16 03:22:00,27.0,24.0,30.28,SSW,194,2.0,4.0,90,0.00,,,0.00,,2013-02-16 11:22:00,
2013-02-16 03:31:00,27.0,24.0,30.27,SSW,194,1.0,4.0,90,0.00,,,0.00,,2013-02-16 11:31:00,
2013-02-16 03:42:00,27.0,24.0,30.27,SSW,194,1.0,4.0,90,0.00,,,0.00,,2013-02-16 11:42:00,
2013-02-16 03:52:00,26.0,24.0,30.27,SSW,193,0.0,2.0,91,0.00,,,0.00,,2013-02-16 11:52:00,
2013-02-16 04:01:00,26.0,24.0,30.27,SSW,193,2.0,3.0,91,0.00,,,0.00,,2013-02-16 12:01:00,
2013-02-16 04:12:00,26.0,24.0,30.27,SSW,193,2.0,3.0,91,0.00,,,0.00,,2013-02-16 12:12:00,
2013-02-16 04:22:00,25.0,23.0,30.26,SSW,193,0.0,2.0,91,0.00,,,0.00,,2013-02-16 12:22:00,
2013-02-16 04:32:00,25.0,23.0,30.26,SSW,193,1.0,3.0,91,0.00,,,0.00,,2013-02-16 12:32:00,
2013-02-16 04:42:00,25.0,23.0,30.26,SSW,193,1.0,3.0,91,0.00,,,0.00,,2013-02-16 12:42:00,
2013-02-16 04:52:00,25.0,23.0,30.26,SSW,193,1.0,5.0,91,0.00,,,0.00,,2013-02-16 12:52:00,
2013-02-16 05:01:00,25.0,23.0,30.26,SSW,194,2.0,5.0,91,0.00,,,0.00,,2013-02-16 13:01:00,
2013-02-16 05:11:00,25.0,23.0,30.26,SSW,194,2.0,5.0,91,0.00,,,0.00,,2013-02-16 13:11:00,
2013-02-16 05:21:00,25.0,23.0,30.26,SSW,193,0.0,3.0,92,0.00,,,0.00,,2013-02-16 13:21:00,
2013-02-16 05:31:00,25.0,23.0,30.26,SSW,193,1.0,3.0,92,0.00,,,0.00,,2013-02-16 13:31:00,
2013-02-16 05:41:00,25.0,23.0,30.26,SSW,193,1.0,3.0,92,0.00,,,0.00,,2013-02-16 13:41:00,
2013-02-16 05:51:00,25.0,23.0,30.25,SSW,193,1.0,3.0,92,0.00,,,0.00,,2013-02-16 13:51:00,
2013-02-16 06:01:00,25.0,23.0,30.25,SSW,193,1.0,3.0,92,0.00,,,0.00,,2013-02-16 14:01:00,
2013-02-16 06:11:00,25.0,23.0,30.25,SSW,193,1.0,3.0,92,0.00,,,0.00,,2013-02-16 14:11:00,
2013-02-16 06:21:00,24.0,22.0,30.25,SSW,193,1.0,4.0,92,0.00,,,0.00,,2013-02-16 14:21:00,
2013-02-16 06:32:00,24.0,22.0,30.24,SSW,193,2.0,4.0,92,0.00,,,0.00,,2013-02-16 14:32:00,
2013-02-16 06:41:00,24.0,22.0,30.24,SSW,193,2.0,4.0,92,0.00,,,0.00,,2013-02-16 14:41:00,
2013-02-16 06:52:00,24.0,22.0,30.24,SSW,193,1.0,4.0,92,0.00,,,0.00,,2013-02-16 14:52:00,
2013-02-16 07:01:00,24.0,22.0,30.24,SSW,193,1.0,3.0,92,0.00,,,0.00,,2013-02-16 15:01:00,
2013-02-16 07:11:00,24.0,22.0,30.24,SSW,193,1.0,3.0,92,0.00,,,0.00,,2013-02-16 15:11:00,
2013-02-16 07:21:00,24.0,22.0,30.24,SSW,193,0.0,6.0,92,0.00,,,0.00,,2013-02-16 15:21:00,
2013-02-16 07:31:00,24.0,22.0,30.23,SSW,193,0.0,2.0,92,0.00,,,0.00,,2013-02-16 15:31:00,
2013-02-16 07:41:00,24.0,22.0,30.23,SSW,193,0.0,2.0,92,0.00,,,0.00,,2013-02-16 15:41:00,
2013-02-16 07:52:00,24.0,22.0,30.24,SSW,193,1.0,3.0,93,0.00,,,0.00,,2013-02-16 15:52:00,
2013-02-16 08:01:00,25.0,22.0,30.23,SSW,200,0.0,4.0,90,0.00,,,0.00,,2013-02-16 16:01:00,
2013-02-16 08:11:00,25.0,22.0,30.23,SSW,200,0.0,4.0,90,0.00,,,0.00,,2013-02-16 16:11:00,
2013-02-16 08:21:00,27.0,24.0,30.23,SSW,200,0.0,3.0,89,0.00,,,0.00,,2013-02-16 16:21:00,
2013-02-16 08:32:00,28.0,25.0,30.23,SSW,200,2.0,4.0,88,0.00,,,0.00,,2013-02-16 16:32:00,
2013-02-16 08:41:00,28.0,25.0,30.23,SSW,200,2.0,4.0,88,0.00,,,0.00,,2013-02-16 16:41:00,
2013-02-16 08:52:00,31.0,27.0,30.23,SSW,200,1.0,3.0,84,0.00,,,0.00,,2013-02-16 16:52:00,
2013-02-16 09:01:00,33.0,27.0,30.23,South,189,1.0,5.0,79,0.00,,,0.00,,2013-02-16 17:01:00,
2013-02-16 09:11:00,33.0,27.0,30.23,South,189,1.0,5.0,79,0.00,,,0.00,,2013-02-16 17:11:00,
2013-02-16 09:21:00,37.0,29.0,30.23,SW,219,0.0,8.0,73,0.00,,,0.00,,2013-02-16 17:21:00,
2013-02-16 09:31:00,38.0,28.0,30.22,SW,214,5.0,7.0,68,0.00,,,0.00,,2013-02-16 17:31:00,
2013-02-16 09:41:00,38.0,28.0,30.22,SW,214,5.0,7.0,68,0.00,,,0.00,,2013-02-16 17:41:00,
2013-02-16 09:52:00,40.0,30.0,30.22,South,188,5.0,12.0,66,0.00,,,0.00,,2013-02-16 17:52:00,
2013-02-16 10:01:00,40.0,29.0,30.21,SSW,205,7.0,14.0,64,0.00,,,0.00,,2013-02-16 18:01:00,
2013-02-16 10:11:00,42.0,29.0,30.21,SSW,209,5.0,13.0,60,0.00,,,0.00,,2013-02-16 18:11:00,
2013-02-16 10:21:00,42.0,29.0,30.21,SSW,209,5.0,13.0,60,0.00,,,0.00,,2013-02-16 18:21:00,
2013-02-16 10:32:00,44.0,29.0,30.20,SSW,195,3.0,13.0,56,0.00,,,0.00,,2013-02-16 18:32:00,
2013-02-16 10:41:00,44.0,29.0,30.20,SSW,195,3.0,13.0,56,0.00,,,0.00,,2013-02-16 18:41:00,
2013-02-16 10:52:00,45.0,29.0,30.19,South,182,6.0,15.0,53,0.00,,,0.00,,2013-02-16 18:52:00,
2013-02-16 11:02:00,46.0,29.0,30.18,SSW,212,8.0,16.0,51,0.00,,,0.00,,2013-02-16 19:02:00,
2013-02-16 11:11:00,46.0,29.0,30.18,SSW,212,8.0,16.0,51,0.00,,,0.00,,2013-02-16 19:11:00,
2013-02-16 11:21:00,47.0,29.0,30.18,SW,218,7.0,12.0,49,0.00,,,0.00,,2013-02-16 19:21:00,
2013-02-16 11:31:00,48.0,29.0,30.17,SW,229,8.0,19.0,48,0.00,,,0.00,,2013-02-16 19:31:00,
2013-02-16 11:42:00,48.0,29.0,30.17,SW,229,8.0,19.0,48,0.00,,,0.00,,2013-02-16 19:42:00,
2013-02-16 11:52:00,48.0,30.0,30.17,WSW,244,8.0,15.0,49,0.00,,,0.00,,2013-02-16 19:52:00,
2013-02-16 12:01:00,49.0,30.0,30.16,West,267,11.0,20.0,48,0.00,,,0.00,,2013-02-16 20:01:00,
2013-02-16 12:11:00,49.0,30.0,30.16,West,267,11.0,20.0,48,0.00,,,0.00,,2013-02-16 20:11:00,
2013-02-16 12:21:00,49.0,30.0,30.16,West,267,11.0,20.0,48,0.00,,,0.00,,2013-02-16 20:21:00,
2013-02-16 12:32:00,48.0,32.0,30.16,SW,235,9.0,18.0,54,0.00,,,0.00,,2013-02-16 20:32:00,
2013-02-16 12:42:00,48.0,32.0,30.16,SW,235,9.0,18.0,54,0.00,,,0.00,,2013-02-16 20:42:00,
2013-02-16 12:52:00,46.0,31.0,30.16,WSW,245,12.0,19.0,56,0.00,,,0.00,,2013-02-16 20:52:00,
2013-02-16 13:02:00,45.0,32.0,30.16,WSW,242,8.0,14.0,59,0.00,,,0.00,,2013-02-16 21:02:00,
2013-02-16 13:11:00,45.0,32.0,30.16,WSW,242,8.0,14.0,59,0.00,,,0.00,,2013-02-16 21:11:00,
2013-02-16 13:21:00,44.0,31.0,30.15,WNW,284,8.0,17.0,60,0.00,,,0.00,,2013-02-16 21:21:00,
2013-02-16 13:31:00,45.0,32.0,30.15,West,265,7.0,16.0,60,0.00,,,0.00,,2013-02-16 21:31:00,
2013-02-16 13:41:00,45.0,32.0,30.15,West,265,7.0,16.0,60,0.00,,,0.00,,2013-02-16 21:41:00,
2013-02-16 13:52:00,45.0,32.0,30.15,South,188,8.0,18.0,59,0.00,,,0.00,,2013-02-16 21:52:00,
2013-02-16 14:01:00,44.0,31.0,30.14,West,276,5.0,16.0,60,0.00,,,0.00,,2013-02-16 22:01:00,
2013-02-16 14:11:00,44.0,31.0,30.14,West,276,5.0,16.0,60,0.00,,,0.00,,2013-02-16 22:11:00,
2013-02-16 14:21:00,44.0,30.0,30.14,West,259,7.0,18.0,57,0.00,,,0.00,,2013-02-16 22:21:00,
2013-02-16 14:31:00,44.0,28.0,30.14,West,268,4.0,15.0,54,0.00,,,0.00,,2013-02-16 22:31:00,
2013-02-16 14:42:00,44.0,28.0,30.14,West,268,4.0,15.0,54,0.00,,,0.00,,2013-02-16 22:42:00,
2013-02-16 14:52:00,46.0,27.0,30.14,SSW,205,7.0,15.0,47,0.00,,,0.00,,2013-02-16 22:52:00,
2013-02-16 15:02:00,45.0,27.0,30.14,West,271,5.0,12.0,49,0.00,,,0.00,,2013-02-16 23:02:00,
2013-02-16 15:11:00,45.0,27.0,30.14,West,271,5.0,12.0,49,0.00,,,0.00,,2013-02-16 23:11:00,
2013-02-16 15:21:00,46.0,26.0,30.14,WSW,251,8.0,15.0,46,0.00,,,0.00,,2013-02-16 23:21:00,
2013-02-16 15:31:00,44.0,24.0,30.14,WSW,258,9.0,18.0,45,0.00,,,0.00,,2013-02-16 23:31:00,
2013-02-16 15:42:00,44.0,24.0,30.14,WSW,258,9.0,18.0,45,0.00,,,0.00,,2013-02-16 23:42:00,
2013-02-16 15:52:00,44.0,23.0,30.14,WSW,248,8.0,19.0,43,0.00,,,0.00,,2013-02-16 23:52:00,
2013-02-16 16:01:00,44.0,23.0,30.14,West,277,9.0,17.0,44,0.00,,,0.00,,2013-02-17 00:01:00,
2013-02-16 16:11:00,44.0,23.0,30.14,West,277,9.0,17.0,44,0.00,,,0.00,,2013-02-17 00:11:00,
2013-02-16 16:21:00,43.0,24.0,30.15,NW,309,7.0,15.0,46,0.00,,,0.00,,2013-02-17 00:21:00,
2013-02-16 16:31:00,43.0,24.0,30.15,NW,309,7.0,15.0,46,0.00,,,0.00,,2013-02-17 00:31:00,
2013-02-16 16:41:00,43.0,24.0,30.15,NW,309,7.0,15.0,46,0.00,,,0.00,,2013-02-17 00:41:00,
2013-02-16 16:52:00,41.0,26.0,30.16,WNW,284,6.0,14.0,55,0.00,,,0.00,,2013-02-17 00:52:00,
2013-02-16 17:01:00,40.0,25.0,30.16,West,273,6.0,14.0,55,0.00,,,0.00,,2013-02-17 01:01:00,
2013-02-16 17:11:00,40.0,25.0,30.16,West,273,6.0,14.0,55,0.00,,,0.00,,2013-02-17 01:11:00,
2013-02-16 17:21:00,39.0,24.0,30.16,WSW,254,7.0,14.0,55,0.00,,,0.00,,2013-02-17 01:21:00,
2013-02-16 17:31:00,37.0,24.0,30.17,West,270,5.0,19.0,59,0.00,,,0.00,,2013-02-17 01:31:00,
2013-02-16 17:41:00,37.0,24.0,30.17,West,270,5.0,19.0,59,0.00,,,0.00,,2013-02-17 01:41:00,
2013-02-16 17:52:00,36.0,24.0,30.17,West,271,7.0,12.0,62,0.00,,,0.00,,2013-02-17 01:52:00,
2013-02-16 18:01:00,36.0,25.0,30.17,West,262,6.0,12.0,63,0.00,,,0.00,,2013-02-17 02:01:00,
2013-02-16 18:11:00,36.0,25.0,30.17,West,262,6.0,12.0,63,0.00,,,0.00,,2013-02-17 02:11:00,
2013-02-16 18:21:00,35.0,25.0,30.17,WSW,250,4.0,11.0,66,0.00,,,0.00,,2013-02-17 02:21:00,
2013-02-16 18:31:00,34.0,25.0,30.17,SW,232,6.0,12.0,70,0.00,,,0.00,,2013-02-17 02:31:00,
2013-02-16 18:41:00,34.0,25.0,30.17,SW,232,6.0,12.0,70,0.00,,,0.00,,2013-02-17 02:41:00,
2013-02-16 18:52:00,34.0,26.0,30.16,SW,219,5.0,9.0,72,0.00,,,0.00,,2013-02-17 02:52:00,
2013-02-16 19:01:00,33.0,26.0,30.16,SE,146,3.0,6.0,74,0.00,,,0.00,,2013-02-17 03:01:00,
2013-02-16 19:11:00,33.0,26.0,30.16,SE,146,3.0,6.0,74,0.00,,,0.00,,2013-02-17 03:11:00,
2013-02-16 19:21:00,33.0,26.0,30.17,South,181,7.0,11.0,74,0.00,,,0.00,,2013-02-17 03:21:00,
2013-02-16 19:31:00,33.0,26.0,30.17,SW,236,0.0,5.0,75,0.00,,,0.00,,2013-02-17 03:31:00,
2013-02-16 19:41:00,33.0,26.0,30.17,SW,236,0.0,5.0,75,0.00,,,0.00,,2013-02-17 03:41:00,
2013-02-16 19:52:00,33.0,27.0,30.18,West,259,4.0,9.0,78,0.00,,,0.00,,2013-02-17 03:52:00,
2013-02-16 20:01:00,32.0,27.0,30.18,West,262,4.0,11.0,81,0.00,,,0.00,,2013-02-17 04:01:00,
2013-02-16 20:11:00,32.0,27.0,30.18,West,262,4.0,11.0,81,0.00,,,0.00,,2013-02-17 04:11:00,
2013-02-16 20:21:00,32.0,27.0,30.18,WNW,285,6.0,13.0,83,0.00,,,0.00,,2013-02-17 04:21:00,
2013-02-16 20:31:00,32.0,28.0,30.18,West,274,2.0,10.0,84,0.00,,,0.00,,2013-02-17 04:31:00,
2013-02-16 20:41:00,32.0,28.0,30.18,West,274,2.0,10.0,84,0.00,,,0.00,,2013-02-17 04:41:00,
2013-02-16 20:52:00,31.0,27.0,30.18,West,275,4.0,8.0,84,0.00,,,0.00,,2013-02-17 04:52:00,
2013-02-16 21:01:00,31.0,26.0,30.18,WNW,287,1.0,7.0,83,0.00,,,0.00,,2013-02-17 05:01:00,
2013-02-16 21:11:00,31.0,26.0,30.18,WNW,287,1.0,7.0,83,0.00,,,0.00,,2013-02-17 05:11:00,
2013-02-16 21:22:00,31.0,26.0,30.18,West,261,3.0,9.0,81,0.00,,,0.00,,2013-02-17 05:22:00,
2013-02-16 21:32:00,31.0,26.0,30.18,West,270,6.0,13.0,80,0.00,,,0.00,,2013-02-17 05:32:00,
2013-02-16 21:42:00,31.0,26.0,30.18,West,270,6.0,13.0,80,0.00,,,0.00,,2013-02-17 05:42:00,
2013-02-16 21:52:00,31.0,26.0,30.19,SSE,148,3.0,10.0,80,0.00,,,0.00,,2013-02-17 05:52:00,
2013-02-16 22:01:00,29.0,25.0,30.19,SSE,165,3.0,7.0,86,0.00,,,0.00,,2013-02-17 06:01:00,
2013-02-16 22:11:00,29.0,25.0,30.19,SSE,165,3.0,7.0,86,0.00,,,0.00,,2013-02-17 06:11:00,
2013-02-16 22:21:00,30.0,24.0,30.18,SW,234,7.0,16.0,79,0.00,,,0.00,,2013-02-17 06:21:00,
2013-02-16 22:31:00,31.0,25.0,30.19,SW,236,3.0,10.0,78,0.00,,,0.00,,2013-02-17 06:31:00,
2013-02-16 22:41:00,31.0,25.0,30.19,SW,236,3.0,10.0,78,0.00,,,0.00,,2013-02-17 06:41:00,
2013-02-16 22:52:00,30.0,23.0,30.19,WNW,296,2.0,10.0,74,0.00,,,0.00,,2013-02-17 06:52:00,
2013-02-16 23:01:00,30.0,22.0,30.19,SW,221,4.0,7.0,73,0.00,,,0.00,,2013-02-17 07:01:00,
2013-02-16 23:11:00,30.0,22.0,30.19,SW,221,4.0,7.0,73,0.00,,,0.00,,2013-02-17 07:11:00,
2013-02-16 23:21:00,29.0,22.0,30.19,SW,222,2.0,5.0,76,0.00,,,0.00,,2013-02-17 07:21:00,
2013-02-16 23:31:00,29.0,22.0,30.19,West,275,4.0,9.0,75,0.00,,,0.00,,2013-02-17 07:31:00,
2013-02-16 23:41:00,29.0,22.0,30.19,West,275,4.0,9.0,75,0.00,,,0.00,,2013-02-17 07:41:00,
2013-02-16 23:52:00,29.0,21.0,30.18,West,263,7.0,12.0,73,0.00,,,0.00,,2013-02-17 07:52:00,